createdAt,value
2023-03-18T00:00:25.362Z,1005.80
2023-03-18T00:01:25.353Z,1005.85
2023-03-18T00:02:25.408Z,1005.83
2023-03-18T00:03:25.382Z,1005.80
2023-03-18T00:04:25.317Z,1005.86
2023-03-18T00:05:25.305Z,1005.83
2023-03-18T00:06:25.293Z,1005.87
2023-03-18T00:07:25.287Z,1005.82
2023-03-18T00:08:25.270Z,1005.82
2023-03-18T00:09:25.266Z,1005.90
2023-03-18T00:10:25.250Z,1005.82
2023-03-18T00:11:25.260Z,1005.83
2023-03-18T00:12:25.226Z,1005.84
2023-03-18T00:13:25.212Z,1005.90
2023-03-18T00:14:25.202Z,1005.85
2023-03-18T00:15:25.195Z,1005.92
2023-03-18T00:16:25.208Z,1005.90
2023-03-18T00:17:25.171Z,1005.79
2023-03-18T00:18:25.154Z,1005.81
2023-03-18T00:19:25.196Z,1005.85
2023-03-18T00:20:25.146Z,1005.82
2023-03-18T00:21:25.122Z,1005.82
2023-03-18T00:22:25.113Z,1005.82
2023-03-18T00:23:25.103Z,1005.82
2023-03-18T00:24:25.093Z,1005.80
2023-03-18T00:25:25.085Z,1005.82
2023-03-18T00:26:25.078Z,1005.79
2023-03-18T00:27:25.078Z,1005.81
2023-03-18T00:28:25.053Z,1005.73
2023-03-18T00:29:25.086Z,1005.74
2023-03-18T00:30:25.022Z,1005.66
2023-03-18T00:31:25.100Z,1005.73
2023-03-18T00:32:25.004Z,1005.72
2023-03-18T00:33:24.989Z,1005.72
2023-03-18T00:34:24.985Z,1005.62
2023-03-18T00:35:24.966Z,1005.63
2023-03-18T00:36:24.954Z,1005.66
2023-03-18T00:37:24.944Z,1005.75
2023-03-18T00:38:24.930Z,1005.78
2023-03-18T00:39:24.919Z,1005.78
2023-03-18T00:40:24.908Z,1005.77
2023-03-18T00:41:24.896Z,1005.79
2023-03-18T00:42:24.889Z,1005.77
2023-03-18T00:43:24.901Z,1005.80
2023-03-18T00:44:24.865Z,1005.79
2023-03-18T00:45:24.854Z,1005.73
2023-03-18T00:46:24.957Z,1005.76
2023-03-18T00:47:24.838Z,1005.70
2023-03-18T00:48:24.822Z,1005.70
2023-03-18T00:49:24.811Z,1005.61
2023-03-18T00:50:24.802Z,1005.66
2023-03-18T00:51:24.815Z,1005.71
2023-03-18T00:52:24.803Z,1005.72
2023-03-18T00:53:24.766Z,1005.71
2023-03-18T00:54:24.755Z,1005.68
2023-03-18T00:55:24.741Z,1005.78
2023-03-18T00:56:24.730Z,1005.71
2023-03-18T00:57:24.724Z,1005.68
2023-03-18T00:58:24.704Z,1005.65
2023-03-18T00:59:24.769Z,1005.63
2023-03-18T01:00:24.719Z,1005.66
2023-03-18T01:01:24.719Z,1005.70
2023-03-18T01:02:24.777Z,1005.71
2023-03-18T01:03:24.654Z,1005.77
2023-03-18T01:04:24.637Z,1005.71
2023-03-18T01:05:24.645Z,1005.74
2023-03-18T01:06:24.616Z,1005.74
2023-03-18T01:07:24.624Z,1005.62
2023-03-18T01:08:24.600Z,1005.61
2023-03-18T01:09:24.590Z,1005.58
2023-03-18T01:10:24.579Z,1005.69
2023-03-18T01:11:24.570Z,1005.74
2023-03-18T01:12:24.551Z,1005.71
2023-03-18T01:13:24.540Z,1005.74
2023-03-18T01:14:24.527Z,1005.68
2023-03-18T01:15:24.542Z,1005.62
2023-03-18T01:16:24.527Z,1005.71
2023-03-18T01:17:24.495Z,1005.59
2023-03-18T01:18:24.486Z,1005.66
2023-03-18T01:19:24.476Z,1005.57
2023-03-18T01:20:24.460Z,1005.53
2023-03-18T01:21:24.463Z,1005.61
2023-03-18T01:22:24.455Z,1005.58
2023-03-18T01:23:24.427Z,1005.64
2023-03-18T01:24:24.433Z,1005.55
2023-03-18T01:25:24.406Z,1005.62
2023-03-18T01:26:24.392Z,1005.60
2023-03-18T01:27:24.383Z,1005.56
2023-03-18T01:28:24.371Z,1005.59
2023-03-18T01:29:24.360Z,1005.57
2023-03-18T01:30:24.350Z,1005.64
2023-03-18T01:31:24.465Z,1005.60
2023-03-18T01:32:24.332Z,1005.63
2023-03-18T01:33:24.332Z,1005.62
2023-03-18T01:34:24.304Z,1005.57
2023-03-18T01:35:24.300Z,1005.59
2023-03-18T01:36:24.288Z,1005.58
2023-03-18T01:37:24.267Z,1005.54
2023-03-18T01:38:24.256Z,1005.53
2023-03-18T01:39:24.244Z,1005.60
2023-03-18T01:40:24.232Z,1005.49
2023-03-18T01:41:24.224Z,1005.57
2023-03-18T01:42:24.217Z,1005.53
2023-03-18T01:43:24.205Z,1005.48
2023-03-18T01:44:24.191Z,1005.46
2023-03-18T01:45:24.380Z,1005.51
2023-03-18T01:46:24.175Z,1005.45
2023-03-18T01:47:24.177Z,1005.54
2023-03-18T01:48:24.144Z,1005.52
2023-03-18T01:49:24.154Z,1005.50
2023-03-18T01:50:24.118Z,1005.53
2023-03-18T01:51:24.112Z,1005.58
2023-03-18T01:52:24.098Z,1005.54
2023-03-18T01:53:24.084Z,1005.48
2023-03-18T01:54:24.074Z,1005.49
2023-03-18T01:55:24.061Z,1005.38
2023-03-18T01:56:24.051Z,1005.44
2023-03-18T01:57:24.048Z,1005.40
2023-03-18T01:58:24.030Z,1005.47
2023-03-18T01:59:24.020Z,1005.51
2023-03-18T02:00:24.014Z,1005.49
2023-03-18T02:01:24.059Z,1005.51
2023-03-18T02:02:23.991Z,1005.51
2023-03-18T02:03:23.996Z,1005.53
2023-03-18T02:04:23.962Z,1005.50
2023-03-18T02:05:47.728Z,1005.51
2023-03-18T02:06:47.733Z,1005.48
2023-03-18T02:07:47.706Z,1005.48
2023-03-18T02:08:47.695Z,1005.55
2023-03-18T02:09:47.694Z,1005.54
2023-03-18T02:10:47.672Z,1005.57
2023-03-18T02:11:47.661Z,1005.64
2023-03-18T02:12:47.654Z,1005.57
2023-03-18T02:13:47.640Z,1005.56
2023-03-18T02:14:47.630Z,1005.49
2023-03-18T02:15:47.630Z,1005.57
2023-03-18T02:16:47.651Z,1005.54
2023-03-18T02:17:47.606Z,1005.57
2023-03-18T02:18:47.616Z,1005.52
2023-03-18T02:19:47.588Z,1005.58
2023-03-18T02:20:47.567Z,1005.58
2023-03-18T02:21:47.554Z,1005.59
2023-03-18T02:22:47.543Z,1005.57
2023-03-18T02:23:47.531Z,1005.55
2023-03-18T02:24:47.518Z,1005.50
2023-03-18T02:25:47.511Z,1005.51
2023-03-18T02:26:47.495Z,1005.53
2023-03-18T02:27:47.487Z,1005.52
2023-03-18T02:28:47.476Z,1005.50
2023-03-18T02:29:47.464Z,1005.50
2023-03-18T02:30:47.554Z,1005.49
2023-03-18T02:31:47.441Z,1005.48
2023-03-18T02:32:47.458Z,1005.42
2023-03-18T02:33:47.417Z,1005.48
2023-03-18T02:34:47.431Z,1005.56
2023-03-18T02:35:47.453Z,1005.51
2023-03-18T02:36:47.388Z,1005.58
2023-03-18T02:37:47.374Z,1005.54
2023-03-18T02:38:47.370Z,1005.45
2023-03-18T02:39:47.350Z,1005.47
2023-03-18T02:40:47.345Z,1005.52
2023-03-18T02:41:47.393Z,1005.48
2023-03-18T02:42:47.318Z,1005.50
2023-03-18T02:43:47.316Z,1005.47
2023-03-18T02:44:47.299Z,1005.48
2023-03-18T02:45:47.330Z,1005.50
2023-03-18T02:46:47.308Z,1005.50
2023-03-18T02:47:47.266Z,1005.52
2023-03-18T02:48:47.254Z,1005.47
2023-03-18T02:49:47.245Z,1005.50
2023-03-18T02:50:47.258Z,1005.58
2023-03-18T02:51:47.240Z,1005.47
2023-03-18T02:52:47.216Z,1005.50
2023-03-18T02:53:47.200Z,1005.52
2023-03-18T02:54:47.192Z,1005.48
2023-03-18T02:55:47.179Z,1005.53
2023-03-18T02:56:47.167Z,1005.42
2023-03-18T02:57:47.169Z,1005.42
2023-03-18T02:58:47.144Z,1005.39
2023-03-18T02:59:47.150Z,1005.38
2023-03-18T03:00:47.131Z,1005.38
2023-03-18T03:01:47.150Z,1005.33
2023-03-18T03:02:47.227Z,1005.41
2023-03-18T03:03:47.100Z,1005.41
2023-03-18T03:04:47.082Z,1005.43
2023-03-18T03:05:47.066Z,1005.37
2023-03-18T03:06:47.111Z,1005.45
2023-03-18T03:07:47.046Z,1005.38
2023-03-18T03:08:47.039Z,1005.34
2023-03-18T03:09:47.023Z,1005.34
2023-03-18T03:10:47.022Z,1005.37
2023-03-18T03:11:47.041Z,1005.37
2023-03-18T03:12:47.009Z,1005.35
2023-03-18T03:13:46.993Z,1005.36
2023-03-18T03:14:46.971Z,1005.40
2023-03-18T03:15:47.012Z,1005.44
2023-03-18T03:16:46.944Z,1005.43
2023-03-18T03:17:46.937Z,1005.44
2023-03-18T03:18:46.925Z,1005.53
2023-03-18T03:19:46.932Z,1005.52
2023-03-18T03:20:46.907Z,1005.51
2023-03-18T03:21:46.896Z,1005.51
2023-03-18T03:22:46.909Z,1005.55
2023-03-18T03:23:46.876Z,1005.52
2023-03-18T03:24:46.864Z,1005.49
2023-03-18T03:25:46.859Z,1005.51
2023-03-18T03:26:46.836Z,1005.47
2023-03-18T03:27:46.832Z,1005.47
2023-03-18T03:28:46.812Z,1005.56
2023-03-18T03:29:46.814Z,1005.51
2023-03-18T03:30:46.831Z,1005.58
2023-03-18T03:31:46.778Z,1005.55
2023-03-18T03:32:46.840Z,1005.52
2023-03-18T03:33:46.760Z,1005.54
2023-03-18T03:34:46.751Z,1005.56
2023-03-18T03:35:46.803Z,1005.59
2023-03-18T03:36:46.722Z,1005.52
2023-03-18T03:37:46.715Z,1005.62
2023-03-18T03:38:46.722Z,1005.58
2023-03-18T03:39:46.692Z,1005.57
2023-03-18T03:40:46.684Z,1005.53
2023-03-18T03:41:46.674Z,1005.61
2023-03-18T03:42:46.660Z,1005.57
2023-03-18T03:43:46.654Z,1005.51
2023-03-18T03:44:46.633Z,1005.56
2023-03-18T03:45:46.625Z,1005.52
2023-03-18T03:46:46.649Z,1005.50
2023-03-18T03:47:46.620Z,1005.50
2023-03-18T03:48:46.595Z,1005.45
2023-03-18T03:49:46.581Z,1005.45
2023-03-18T03:50:46.575Z,1005.48
2023-03-18T03:51:46.553Z,1005.46
2023-03-18T03:52:46.550Z,1005.43
2023-03-18T03:53:46.540Z,1005.43
2023-03-18T03:54:46.552Z,1005.46
2023-03-18T03:55:46.516Z,1005.49
2023-03-18T03:56:46.505Z,1005.48
2023-03-18T03:57:46.492Z,1005.49
2023-03-18T03:58:46.485Z,1005.54
2023-03-18T03:59:46.465Z,1005.53
2023-03-18T04:00:46.464Z,1005.57
2023-03-18T04:01:46.440Z,1005.51
2023-03-18T04:02:46.504Z,1005.46
2023-03-18T04:03:46.506Z,1005.50
2023-03-18T04:04:46.413Z,1005.50
2023-03-18T04:05:46.407Z,1005.52
2023-03-18T04:06:46.386Z,1005.51
2023-03-18T04:07:46.376Z,1005.55
2023-03-18T04:08:46.364Z,1005.49
2023-03-18T04:09:46.356Z,1005.47
2023-03-18T04:10:46.363Z,1005.57
2023-03-18T04:11:46.334Z,1005.56
2023-03-18T04:12:46.330Z,1005.56
2023-03-18T04:13:46.310Z,1005.54
2023-03-18T04:14:46.301Z,1005.59
2023-03-18T04:15:46.341Z,1005.58
2023-03-18T04:16:46.273Z,1005.69
2023-03-18T04:17:46.272Z,1005.74
2023-03-18T04:18:46.254Z,1005.72
2023-03-18T04:19:46.243Z,1005.71
2023-03-18T04:20:46.307Z,1005.77
2023-03-18T04:21:46.217Z,1005.79
2023-03-18T04:22:46.212Z,1005.80
2023-03-18T04:23:46.196Z,1005.82
2023-03-18T04:24:46.189Z,1005.82
2023-03-18T04:25:46.197Z,1005.75
2023-03-18T04:26:46.191Z,1005.71
2023-03-18T04:27:46.154Z,1005.67
2023-03-18T04:28:46.140Z,1005.73
2023-03-18T04:29:46.137Z,1005.74
2023-03-18T04:30:46.116Z,1005.73
2023-03-18T04:31:46.142Z,1005.75
2023-03-18T04:32:46.195Z,1005.80
2023-03-18T04:33:46.080Z,1005.87
2023-03-18T04:34:46.075Z,1005.84
2023-03-18T04:35:46.094Z,1005.77
2023-03-18T04:36:46.053Z,1005.89
2023-03-18T04:37:46.037Z,1005.77
2023-03-18T04:38:46.035Z,1005.74
2023-03-18T04:39:46.018Z,1005.74
2023-03-18T04:40:46.004Z,1005.79
2023-03-18T04:41:46.003Z,1005.76
2023-03-18T04:42:46.025Z,1005.77
2023-03-18T04:43:45.971Z,1005.89
2023-03-18T04:44:45.966Z,1005.89
2023-03-18T04:45:45.956Z,1005.89
2023-03-18T04:46:45.941Z,1005.91
2023-03-18T04:47:45.952Z,1005.90
2023-03-18T04:48:45.918Z,1005.96
2023-03-18T04:49:45.914Z,1005.90
2023-03-18T04:50:45.914Z,1005.89
2023-03-18T04:51:45.882Z,1005.95
2023-03-18T04:52:45.876Z,1005.86
2023-03-18T04:53:45.859Z,1005.97
2023-03-18T04:54:45.848Z,1005.96
2023-03-18T04:55:45.834Z,1005.96
2023-03-18T04:56:45.824Z,1005.92
2023-03-18T04:57:45.857Z,1005.92
2023-03-18T04:58:47.848Z,1005.88
2023-03-18T04:59:45.792Z,1005.98
2023-03-18T05:00:45.812Z,1005.98
2023-03-18T05:01:45.778Z,1005.96
2023-03-18T05:02:45.763Z,1005.94
2023-03-18T05:03:45.790Z,1005.93
2023-03-18T05:04:45.735Z,1005.94
2023-03-18T05:05:45.728Z,1005.95
2023-03-18T05:06:45.715Z,1005.94
2023-03-18T05:07:45.701Z,1005.94
2023-03-18T05:08:45.700Z,1005.99
2023-03-18T05:09:45.692Z,1006.00
2023-03-18T05:10:47.668Z,1005.97
2023-03-18T05:11:45.657Z,1005.93
2023-03-18T05:12:45.649Z,1005.92
2023-03-18T05:13:45.638Z,1005.96
2023-03-18T05:14:45.650Z,1005.94
2023-03-18T05:15:45.616Z,1005.98
2023-03-18T05:16:47.658Z,1005.94
2023-03-18T05:17:45.593Z,1006.00
2023-03-18T05:18:45.589Z,1005.96
2023-03-18T05:19:45.570Z,1005.97
2023-03-18T05:20:45.563Z,1006.02
2023-03-18T05:21:45.555Z,1005.99
2023-03-18T05:22:45.533Z,1005.97
2023-03-18T05:23:45.525Z,1005.94
2023-03-18T05:24:45.515Z,1005.94
2023-03-18T05:25:45.501Z,1005.97
2023-03-18T05:26:45.497Z,1005.93
2023-03-18T05:27:47.478Z,1005.93
2023-03-18T05:28:45.477Z,1005.89
2023-03-18T05:29:45.467Z,1005.95
2023-03-18T05:30:45.475Z,1005.95
2023-03-18T05:31:45.492Z,1006.00
2023-03-18T05:32:45.521Z,1005.97
2023-03-18T05:33:45.411Z,1005.95
2023-03-18T05:34:45.409Z,1005.96
2023-03-18T05:35:45.444Z,1005.97
2023-03-18T05:36:45.412Z,1005.95
2023-03-18T05:37:45.377Z,1005.98
2023-03-18T05:38:45.356Z,1005.96
2023-03-18T05:39:45.347Z,1006.01
2023-03-18T05:40:45.329Z,1006.01
2023-03-18T05:41:45.327Z,1005.99
2023-03-18T05:42:55.953Z,1005.95
2023-03-18T05:43:45.302Z,1005.97
2023-03-18T05:44:45.288Z,1005.94
2023-03-18T05:45:45.345Z,1005.98
2023-03-18T05:46:45.292Z,1005.99
2023-03-18T05:47:45.259Z,1005.97
2023-03-18T05:48:45.241Z,1006.03
2023-03-18T05:49:45.239Z,1006.03
2023-03-18T05:50:45.218Z,1006.06
2023-03-18T05:51:45.205Z,1006.06
2023-03-18T05:52:45.202Z,1006.08
2023-03-18T05:53:45.188Z,1006.11
2023-03-18T05:54:45.181Z,1006.10
2023-03-18T05:55:45.165Z,1006.11
2023-03-18T05:56:45.153Z,1006.08
2023-03-18T05:57:45.144Z,1006.06
2023-03-18T05:58:45.139Z,1006.07
2023-03-18T05:59:45.122Z,1006.05
2023-03-18T06:00:45.115Z,1006.10
2023-03-18T06:01:45.110Z,1006.08
2023-03-18T06:02:45.116Z,1006.11
2023-03-18T06:03:45.139Z,1006.12
2023-03-18T06:04:45.068Z,1006.09
2023-03-18T06:05:45.058Z,1006.11
2023-03-18T06:06:45.053Z,1006.08
2023-03-18T06:07:45.045Z,1006.07
2023-03-18T06:08:45.025Z,1006.03
2023-03-18T06:09:45.011Z,1006.07
2023-03-18T06:10:45.027Z,1006.07
2023-03-18T06:11:44.990Z,1006.06
2023-03-18T06:12:44.982Z,1006.10
2023-03-18T06:13:44.969Z,1006.06
2023-03-18T06:14:44.964Z,1006.09
2023-03-18T06:15:46.910Z,1006.04
2023-03-18T06:16:44.983Z,1006.03
2023-03-18T06:17:44.926Z,1006.03
2023-03-18T06:18:44.939Z,1005.99
2023-03-18T06:19:44.907Z,1006.02
2023-03-18T06:20:44.896Z,1006.05
2023-03-18T06:21:44.923Z,1006.06
2023-03-18T06:22:44.884Z,1006.01
2023-03-18T06:23:44.861Z,1006.07
2023-03-18T06:24:46.545Z,1006.17
2023-03-18T06:25:44.844Z,1006.11
2023-03-18T06:26:44.826Z,1006.16
2023-03-18T06:27:44.821Z,1006.17
2023-03-18T06:28:44.805Z,1006.12
2023-03-18T06:29:44.792Z,1006.14
2023-03-18T06:30:44.838Z,1006.16
2023-03-18T06:31:44.780Z,1006.25
2023-03-18T06:32:44.808Z,1006.29
2023-03-18T06:33:44.749Z,1006.33
2023-03-18T06:34:44.768Z,1006.34
2023-03-18T06:35:44.740Z,1006.31
2023-03-18T06:36:44.717Z,1006.28
2023-03-18T06:37:44.728Z,1006.34
2023-03-18T06:38:44.698Z,1006.37
2023-03-18T06:39:44.689Z,1006.41
2023-03-18T06:40:44.671Z,1006.37
2023-03-18T06:41:44.660Z,1006.32
2023-03-18T06:42:44.648Z,1006.32
2023-03-18T06:43:44.640Z,1006.22
2023-03-18T06:44:44.631Z,1006.20
2023-03-18T06:45:44.615Z,1006.21
2023-03-18T06:46:44.724Z,1006.25
2023-03-18T06:47:44.597Z,1006.16
2023-03-18T06:48:44.581Z,1006.24
2023-03-18T06:49:44.576Z,1006.21
2023-03-18T06:50:44.582Z,1006.21
2023-03-18T06:51:44.564Z,1006.21
2023-03-18T06:52:44.544Z,1006.30
2023-03-18T06:53:44.525Z,1006.34
2023-03-18T06:54:44.516Z,1006.30
2023-03-18T06:55:44.506Z,1006.33
2023-03-18T06:56:46.292Z,1006.40
2023-03-18T06:57:44.499Z,1006.42
2023-03-18T06:58:44.477Z,1006.38
2023-03-18T06:59:44.463Z,1006.35
2023-03-18T07:00:44.498Z,1006.47
2023-03-18T07:01:44.456Z,1006.40
2023-03-18T07:02:44.426Z,1006.41
2023-03-18T07:03:44.415Z,1006.37
2023-03-18T07:04:44.485Z,1006.41
2023-03-18T07:05:44.398Z,1006.43
2023-03-18T07:06:44.448Z,1006.49
2023-03-18T07:07:44.374Z,1006.50
2023-03-18T07:08:44.366Z,1006.56
2023-03-18T07:09:44.347Z,1006.50
2023-03-18T07:10:44.338Z,1006.54
2023-03-18T07:11:44.345Z,1006.61
2023-03-18T07:12:44.314Z,1006.72
2023-03-18T07:13:44.303Z,1006.71
2023-03-18T07:14:44.293Z,1006.70
2023-03-18T07:15:44.350Z,1006.72
2023-03-18T07:16:44.279Z,1006.70
2023-03-18T07:17:44.270Z,1006.74
2023-03-18T07:18:44.252Z,1006.75
2023-03-18T07:19:44.234Z,1006.73
2023-03-18T07:20:44.225Z,1006.72
2023-03-18T07:21:44.212Z,1006.79
2023-03-18T07:22:44.462Z,1006.66
2023-03-18T07:23:44.190Z,1006.69
2023-03-18T07:24:44.188Z,1006.72
2023-03-18T07:25:44.170Z,1006.66
2023-03-18T07:26:44.168Z,1006.73
2023-03-18T07:27:44.149Z,1006.70
2023-03-18T07:28:44.136Z,1006.67
2023-03-18T07:29:44.122Z,1006.72
2023-03-18T07:30:44.123Z,1006.70
2023-03-18T07:31:44.104Z,1006.65
2023-03-18T07:32:44.111Z,1006.65
2023-03-18T07:33:44.078Z,1006.58
2023-03-18T07:34:44.069Z,1006.56
2023-03-18T07:35:44.075Z,1006.61
2023-03-18T07:36:44.052Z,1006.70
2023-03-18T07:37:44.040Z,1006.69
2023-03-18T07:38:44.051Z,1006.78
2023-03-18T07:39:44.042Z,1006.80
2023-03-18T07:40:44.003Z,1006.78
2023-03-18T07:41:43.986Z,1006.77
2023-03-18T07:42:43.977Z,1006.79
2023-03-18T07:43:43.969Z,1006.78
2023-03-18T07:44:43.958Z,1006.86
2023-03-18T07:45:43.942Z,1006.84
2023-03-18T07:46:43.991Z,1006.86
2023-03-18T07:47:45.930Z,1006.83
2023-03-18T07:48:43.911Z,1006.83
2023-03-18T07:49:43.903Z,1006.83
2023-03-18T07:50:43.888Z,1006.81
2023-03-18T07:51:43.882Z,1006.86
2023-03-18T07:52:43.863Z,1006.86
2023-03-18T07:53:43.860Z,1006.90
2023-03-18T07:54:43.872Z,1006.95
2023-03-18T07:55:43.830Z,1006.94
2023-03-18T07:56:43.897Z,1007.05
2023-03-18T07:57:43.811Z,1006.98
2023-03-18T07:58:43.803Z,1006.96
2023-03-18T07:59:43.787Z,1006.99
2023-03-18T08:00:43.774Z,1006.97
2023-03-18T08:01:43.814Z,1007.05
2023-03-18T08:02:43.754Z,1007.07
2023-03-18T08:03:43.790Z,1007.07
2023-03-18T08:04:43.751Z,1007.07
2023-03-18T08:05:43.719Z,1007.09
2023-03-18T08:06:43.708Z,1007.06
2023-03-18T08:07:43.705Z,1007.10
2023-03-18T08:08:43.705Z,1007.10
2023-03-18T08:09:43.683Z,1007.10
2023-03-18T08:10:43.693Z,1007.08
2023-03-18T08:11:43.659Z,1007.05
2023-03-18T08:12:52.609Z,1007.04
2023-03-18T08:13:43.625Z,1007.00
2023-03-18T08:14:43.768Z,1007.02
2023-03-18T08:15:43.605Z,1007.02
2023-03-18T08:16:43.688Z,1007.02
2023-03-18T08:17:43.581Z,1007.00
2023-03-18T08:18:43.573Z,1006.99
2023-03-18T08:19:43.560Z,1007.00
2023-03-18T08:20:43.552Z,1006.98
2023-03-18T08:21:43.559Z,1006.97
2023-03-18T08:22:43.525Z,1006.95
2023-03-18T08:23:43.520Z,1007.04
2023-03-18T08:24:45.531Z,1006.99
2023-03-18T08:25:43.497Z,1007.01
2023-03-18T08:26:43.507Z,1007.00
2023-03-18T08:27:43.480Z,1007.02
2023-03-18T08:28:43.465Z,1007.10
2023-03-18T08:29:43.465Z,1007.14
2023-03-18T08:30:43.441Z,1007.26
2023-03-18T08:31:43.472Z,1007.12
2023-03-18T08:32:43.514Z,1007.21
2023-03-18T08:33:43.407Z,1007.19
2023-03-18T08:34:43.401Z,1007.15
2023-03-18T08:35:43.443Z,1007.22
2023-03-18T08:36:43.377Z,1007.17
2023-03-18T08:37:43.362Z,1007.15
2023-03-18T08:38:43.362Z,1007.16
2023-03-18T08:39:43.341Z,1007.25
2023-03-18T08:40:43.343Z,1007.13
2023-03-18T08:41:45.741Z,1007.25
2023-03-18T08:42:43.331Z,1007.22
2023-03-18T08:43:43.294Z,1007.20
2023-03-18T08:44:43.283Z,1007.18
2023-03-18T08:45:43.356Z,1007.13
2023-03-18T08:46:43.274Z,1007.12
2023-03-18T08:47:43.253Z,1007.20
2023-03-18T08:48:43.243Z,1007.12
2023-03-18T08:49:43.230Z,1007.14
2023-03-18T08:50:43.222Z,1007.12
2023-03-18T08:51:43.205Z,1007.13
2023-03-18T08:52:43.199Z,1007.18
2023-03-18T08:53:43.193Z,1007.17
2023-03-18T08:54:43.172Z,1007.15
2023-03-18T08:55:43.179Z,1007.06
2023-03-18T08:56:43.152Z,1007.05
2023-03-18T08:57:43.139Z,1007.10
2023-03-18T08:58:43.277Z,1007.06
2023-03-18T08:59:43.136Z,1007.06
2023-03-18T09:00:43.114Z,1007.07
2023-03-18T09:01:43.171Z,1007.11
2023-03-18T09:02:43.086Z,1007.15
2023-03-18T09:03:43.136Z,1007.19
2023-03-18T09:04:43.067Z,1007.21
2023-03-18T09:05:43.052Z,1007.26
2023-03-18T09:06:43.038Z,1007.22
2023-03-18T09:07:43.034Z,1007.30
2023-03-18T09:08:43.023Z,1007.29
2023-03-18T09:09:44.299Z,1007.36
2023-03-18T09:10:42.997Z,1007.37
2023-03-18T09:11:42.990Z,1007.37
2023-03-18T09:12:42.980Z,1007.38
2023-03-18T09:13:42.960Z,1007.39
2023-03-18T09:14:42.978Z,1007.33
2023-03-18T09:15:42.939Z,1007.38
2023-03-18T09:16:43.010Z,1007.35
2023-03-18T09:17:59.958Z,1007.30
2023-03-18T09:18:45.180Z,1007.30
2023-03-18T09:19:42.919Z,1007.26
2023-03-18T09:20:42.951Z,1007.32
2023-03-18T09:21:42.873Z,1007.34
2023-03-18T09:22:42.862Z,1007.31
2023-03-18T09:23:42.860Z,1007.37
2023-03-18T09:24:42.837Z,1007.27
2023-03-18T09:25:42.891Z,1007.29
2023-03-18T09:26:42.824Z,1007.29
2023-03-18T09:27:42.808Z,1007.35
2023-03-18T09:28:42.794Z,1007.34
2023-03-18T09:29:42.840Z,1007.37
2023-03-18T09:30:42.830Z,1007.39
2023-03-18T09:31:42.763Z,1007.37
2023-03-18T09:32:42.768Z,1007.35
2023-03-18T09:33:42.740Z,1007.38
2023-03-18T09:34:42.725Z,1007.46
2023-03-18T09:35:42.772Z,1007.43
2023-03-18T09:36:42.702Z,1007.44
2023-03-18T09:37:42.702Z,1007.44
2023-03-18T09:38:42.680Z,1007.42
2023-03-18T09:39:42.667Z,1007.42
2023-03-18T09:40:42.657Z,1007.46
2023-03-18T09:41:42.650Z,1007.50
2023-03-18T09:42:42.639Z,1007.53
2023-03-18T09:43:42.627Z,1007.51
2023-03-18T09:44:42.619Z,1007.56
2023-03-18T09:45:42.660Z,1007.62
2023-03-18T09:46:42.806Z,1007.50
2023-03-18T09:47:42.589Z,1007.54
2023-03-18T09:48:42.568Z,1007.61
2023-03-18T09:49:42.569Z,1007.61
2023-03-18T09:50:42.550Z,1007.60
2023-03-18T09:51:42.538Z,1007.58
2023-03-18T09:52:42.533Z,1007.52
2023-03-18T09:53:42.516Z,1007.60
2023-03-18T09:54:42.517Z,1007.55
2023-03-18T09:55:42.497Z,1007.59
2023-03-18T09:56:42.480Z,1007.64
2023-03-18T09:57:42.484Z,1007.58
2023-03-18T09:58:42.463Z,1007.66
2023-03-18T09:59:42.459Z,1007.64
2023-03-18T10:00:42.450Z,1007.57
2023-03-18T10:01:42.523Z,1007.58
2023-03-18T10:02:42.457Z,1007.57
2023-03-18T10:03:42.445Z,1007.59
2023-03-18T10:04:42.407Z,1007.60
2023-03-18T10:05:42.382Z,1007.59
2023-03-18T10:06:42.378Z,1007.58
2023-03-18T10:07:42.361Z,1007.56
2023-03-18T10:08:42.351Z,1007.62
2023-03-18T10:09:42.345Z,1007.64
2023-03-18T10:10:42.354Z,1007.54
2023-03-18T10:11:42.317Z,1007.62
2023-03-18T10:12:42.314Z,1007.59
2023-03-18T10:13:42.303Z,1007.55
2023-03-18T10:14:42.284Z,1007.58
2023-03-18T10:15:42.309Z,1007.57
2023-03-18T10:16:42.264Z,1007.56
2023-03-18T10:17:42.254Z,1007.57
2023-03-18T10:18:42.278Z,1007.58
2023-03-18T10:19:42.235Z,1007.51
2023-03-18T10:20:42.219Z,1007.52
2023-03-18T10:21:42.211Z,1007.46
2023-03-18T10:22:42.203Z,1007.50
2023-03-18T10:23:42.197Z,1007.51
2023-03-18T10:24:42.174Z,1007.58
2023-03-18T10:25:42.164Z,1007.52
2023-03-18T10:26:42.174Z,1007.46
2023-03-18T10:27:42.145Z,1007.52
2023-03-18T10:28:42.132Z,1007.42
2023-03-18T10:29:42.124Z,1007.41
2023-03-18T10:30:43.001Z,1007.51
2023-03-18T10:31:42.104Z,1007.45
2023-03-18T10:32:49.429Z,1007.53
2023-03-18T10:33:42.089Z,1007.57
2023-03-18T10:34:42.164Z,1007.50
2023-03-18T10:35:42.099Z,1007.47
2023-03-18T10:36:42.048Z,1007.49
2023-03-18T10:37:42.040Z,1007.47
2023-03-18T10:38:42.026Z,1007.52
2023-03-18T10:39:42.026Z,1007.44
2023-03-18T10:40:42.009Z,1007.49
2023-03-18T10:41:41.997Z,1007.52
2023-03-18T10:42:41.987Z,1007.52
2023-03-18T10:43:41.978Z,1007.49
2023-03-18T10:44:41.980Z,1007.46
2023-03-18T10:45:41.952Z,1007.48
2023-03-18T10:46:41.993Z,1007.50
2023-03-18T10:47:41.932Z,1007.48
2023-03-18T10:48:41.918Z,1007.46
2023-03-18T10:49:41.911Z,1007.49
2023-03-18T10:50:41.920Z,1007.47
2023-03-18T10:51:41.889Z,1007.45
2023-03-18T10:52:41.878Z,1007.54
2023-03-18T10:53:41.872Z,1007.52
2023-03-18T10:54:41.873Z,1007.56
2023-03-18T10:55:41.847Z,1007.51
2023-03-18T10:56:41.831Z,1007.57
2023-03-18T10:57:41.903Z,1007.59
2023-03-18T10:58:41.837Z,1007.44
2023-03-18T10:59:41.800Z,1007.45
2023-03-18T11:00:41.881Z,1007.53
2023-03-18T11:01:41.793Z,1007.56
2023-03-18T11:02:41.794Z,1007.62
2023-03-18T11:03:41.760Z,1007.57
2023-03-18T11:04:41.744Z,1007.60
2023-03-18T11:05:41.737Z,1007.66
2023-03-18T11:06:41.773Z,1007.53
2023-03-18T11:07:41.713Z,1007.57
2023-03-18T11:08:41.709Z,1007.58
2023-03-18T11:09:41.695Z,1007.55
2023-03-18T11:10:41.684Z,1007.51
2023-03-18T11:11:41.672Z,1007.56
2023-03-18T11:12:41.657Z,1007.54
2023-03-18T11:13:41.649Z,1007.52
2023-03-18T11:14:41.637Z,1007.51
2023-03-18T11:15:41.805Z,1007.52
2023-03-18T11:16:41.621Z,1007.55
2023-03-18T11:17:41.653Z,1007.61
2023-03-18T11:18:41.591Z,1007.48
2023-03-18T11:19:41.586Z,1007.51
2023-03-18T11:20:41.571Z,1007.41
2023-03-18T11:21:41.561Z,1007.47
2023-03-18T11:22:41.580Z,1007.48
2023-03-18T11:23:41.550Z,1007.49
2023-03-18T11:24:41.535Z,1007.44
2023-03-18T11:25:41.564Z,1007.37
2023-03-18T11:26:41.539Z,1007.47
2023-03-18T11:27:41.563Z,1007.46
2023-03-18T11:28:41.547Z,1007.38
2023-03-18T11:29:41.513Z,1007.45
2023-03-18T11:30:41.867Z,1007.46
2023-03-18T11:31:41.534Z,1007.48
2023-03-18T11:32:41.473Z,1007.54
2023-03-18T11:33:47.439Z,1007.46
2023-03-18T11:34:41.419Z,1007.46
2023-03-18T11:35:41.423Z,1007.47
2023-03-18T11:36:41.400Z,1007.49
2023-03-18T11:37:41.391Z,1007.48
2023-03-18T11:38:41.398Z,1007.44
2023-03-18T11:39:41.388Z,1007.41
2023-03-18T11:40:41.354Z,1007.42
2023-03-18T11:41:41.339Z,1007.45
2023-03-18T11:42:41.338Z,1007.43
2023-03-18T11:43:41.332Z,1007.42
2023-03-18T11:44:41.313Z,1007.45
2023-03-18T11:45:41.328Z,1007.45
2023-03-18T11:46:41.367Z,1007.39
2023-03-18T11:47:41.274Z,1007.48
2023-03-18T11:48:41.260Z,1007.51
2023-03-18T11:49:41.251Z,1007.50
2023-03-18T11:50:41.241Z,1007.48
2023-03-18T11:51:41.233Z,1007.55
2023-03-18T11:52:41.223Z,1007.48
2023-03-18T11:53:41.214Z,1007.45
2023-03-18T11:54:41.228Z,1007.53
2023-03-18T11:55:41.188Z,1007.42
2023-03-18T11:56:41.180Z,1007.42
2023-03-18T11:57:41.174Z,1007.42
2023-03-18T11:58:41.165Z,1007.38
2023-03-18T11:59:41.165Z,1007.44
2023-03-18T12:00:41.181Z,1007.44
2023-03-18T12:01:41.196Z,1007.44
2023-03-18T12:02:41.123Z,1007.45
2023-03-18T12:03:41.108Z,1007.45
2023-03-18T12:04:41.220Z,1007.46
2023-03-18T12:05:41.084Z,1007.43